ROMMA est une association bénévole à but non lucratif. Votre soutien est indispensable : ADHERER à ROMMA ou FAIRE un DON

Crempigny-Bonneguête - (74, Haute-Savoie)

Albanais-Montagne des Princes (500 m)   Longitude: 05° 54' 5" E   Latitude: 45° 57' 0" N Station partenaire n°10
 

Détail journalier du     <<     >>

Température Precipitation Humidité Pression Vent Dir Rafale Dir. rafale Ensol. 20 cm au dessus du sol
Heure (°C) (mm) (%) (hPa) (km/h) (km/h) (min) (°C)
01:00 9.905610163OSO10NO07.2
02:00 9.605810161OSO3OSO07.2
03:00 8.606110161O3OSO06.1
04:00 7.8065101603O05.6
05:00 9.306010164NO11N07.2
06:00 6.607010163NO10NO05.0
07:00 7.306910163NO11NNO06.1
08:00 6.806910163NNO10N05.0
09:00 7.307210161ONO6NNE256.1
10:00 9.207010173S8NNE509.4
11:00 13.2055101710NNE29N6014.4
12:00 14.6054101610NE21N6016.1
13:00 16.005010165NNE16ENE3517.2
14:00 17.104810166E16SE6018.9
15:00 18.104510155ESE13E3020.0
16:00 18.304210143ESE13E2519.4
17:00 18.404210143SO10SO4020.0
18:00 18.104210135SSO10SO3018.9
19:00 17.204810134SSO10SSO3516.1
20:00 15.904910131SSO3SSO4013.9
21:00 14.604910144NO6ONO012.8
22:00 13.705110144NO6NO012.2
23:00 12.705510153NO5NO010.6
minuit 11.805710152NO6NO010.0

Graphique du 01-04-2019

 

Serveur OMMA